createdAt,value
2016-03-02T00:00:41.840Z,81
2016-03-02T00:01:40.359Z,81
2016-03-02T00:02:38.893Z,81
2016-03-02T00:03:37.534Z,81
2016-03-02T00:04:36.067Z,81
2016-03-02T00:05:34.492Z,82
2016-03-02T00:06:33.401Z,82
2016-03-02T00:07:32.107Z,82
2016-03-02T00:08:33.125Z,82
2016-03-02T00:09:32.284Z,82
2016-03-02T00:10:31.192Z,82
2016-03-02T00:11:30.242Z,82
2016-03-02T00:12:29.275Z,82
2016-03-02T00:13:28.311Z,83
2016-03-02T00:14:27.594Z,83
2016-03-02T00:15:26.894Z,83
2016-03-02T00:16:26.194Z,83
2016-03-02T00:17:25.805Z,83
2016-03-02T00:18:26.792Z,83
2016-03-02T00:19:26.452Z,83
2016-03-02T00:20:25.877Z,83
2016-03-02T00:21:25.550Z,83
2016-03-02T00:22:25.084Z,83
2016-03-02T00:23:24.885Z,83
2016-03-02T00:24:24.574Z,83
2016-03-02T00:25:24.468Z,83
2016-03-02T00:26:24.174Z,83
2016-03-02T00:27:24.004Z,83
2016-03-02T00:28:25.163Z,83
2016-03-02T00:29:24.806Z,83
2016-03-02T00:30:24.622Z,83
2016-03-02T00:31:24.531Z,83
2016-03-02T00:32:24.205Z,83
2016-03-02T00:33:24.036Z,83
2016-03-02T00:34:23.820Z,83
2016-03-02T00:35:23.604Z,83
2016-03-02T00:36:23.420Z,83
2016-03-02T00:37:23.391Z,83
2016-03-02T00:38:24.300Z,83
2016-03-02T00:39:24.052Z,83
2016-03-02T00:40:23.884Z,83
2016-03-02T00:41:23.776Z,83
2016-03-02T00:42:23.467Z,83
2016-03-02T00:43:23.266Z,83
2016-03-02T00:44:23.050Z,83
2016-03-02T00:45:22.849Z,83
2016-03-02T00:46:22.649Z,83
2016-03-02T00:47:22.495Z,83
2016-03-02T00:48:23.623Z,83
2016-03-02T00:49:23.344Z,83
2016-03-02T00:50:23.097Z,83
2016-03-02T00:51:23.006Z,83
2016-03-02T00:52:22.696Z,83
2016-03-02T00:53:22.496Z,83
2016-03-02T00:54:22.295Z,83
2016-03-02T00:55:22.096Z,83
2016-03-02T00:56:21.832Z,83
2016-03-02T00:57:21.741Z,83
2016-03-02T00:58:22.760Z,83
2016-03-02T00:59:22.543Z,83
2016-03-02T01:00:22.343Z,83
2016-03-02T01:01:22.158Z,83
2016-03-02T01:02:21.943Z,83
2016-03-02T01:03:21.742Z,83
2016-03-02T01:04:21.556Z,84
2016-03-02T01:05:21.544Z,84
2016-03-02T01:06:21.640Z,84
2016-03-02T01:07:21.753Z,84
2016-03-02T01:08:22.755Z,84
2016-03-02T01:09:22.820Z,84
2016-03-02T01:10:22.870Z,84
2016-03-02T01:11:22.919Z,84
2016-03-02T01:12:23.126Z,84
2016-03-02T01:13:23.034Z,84
2016-03-02T01:14:23.192Z,84
2016-03-02T01:15:23.133Z,84
2016-03-02T01:16:23.183Z,84
2016-03-02T01:17:23.295Z,84
2016-03-02T01:18:24.314Z,84
2016-03-02T01:19:24.347Z,84
2016-03-02T01:20:24.397Z,84
2016-03-02T01:21:24.696Z,84
2016-03-02T01:22:24.996Z,84
2016-03-02T01:23:25.436Z,85
2016-03-02T01:24:25.860Z,85
2016-03-02T01:25:26.441Z,85
2016-03-02T01:26:26.960Z,85
2016-03-02T01:27:27.696Z,85
2016-03-02T01:28:28.590Z,85
2016-03-02T01:29:29.155Z,85
2016-03-02T01:30:29.721Z,85
2016-03-02T01:31:30.270Z,85
2016-03-02T01:32:30.945Z,85
2016-03-02T01:33:31.385Z,85
2016-03-02T01:34:31.934Z,84
2016-03-02T01:35:32.234Z,84
2016-03-02T01:36:32.565Z,84
2016-03-02T01:37:33.037Z,84
2016-03-02T01:38:33.929Z,84
2016-03-02T01:39:34.245Z,84
2016-03-02T01:40:34.607Z,84
2016-03-02T01:41:34.844Z,84
2016-03-02T01:42:35.143Z,84
2016-03-02T01:43:35.443Z,84
2016-03-02T01:44:35.742Z,84
2016-03-02T01:45:36.167Z,84
2016-03-02T01:46:36.372Z,84
2016-03-02T01:47:36.720Z,84
2016-03-02T01:48:37.863Z,84
2016-03-02T01:49:38.069Z,84
2016-03-02T01:50:38.337Z,84
2016-03-02T01:51:38.699Z,84
2016-03-02T01:52:38.966Z,84
2016-03-02T01:53:39.392Z,84
2016-03-02T01:54:39.550Z,84
2016-03-02T01:55:39.850Z,84
2016-03-02T01:56:40.165Z,84
2016-03-02T01:57:40.527Z,84
2016-03-02T01:58:41.546Z,84
2016-03-02T01:59:41.845Z,84
2016-03-02T02:00:42.146Z,84
2016-03-02T02:01:42.444Z,84
2016-03-02T02:02:42.868Z,84
2016-03-02T02:03:43.074Z,84
2016-03-02T02:04:43.359Z,84
2016-03-02T02:05:43.710Z,84
2016-03-02T02:06:44.014Z,84
2016-03-02T02:07:44.080Z,84
2016-03-02T02:08:45.116Z,84
2016-03-02T02:09:45.525Z,84
2016-03-02T02:10:45.450Z,84
2016-03-02T02:11:45.749Z,84
2016-03-02T02:12:46.174Z,84
2016-03-02T02:13:46.364Z,84
2016-03-02T02:14:46.664Z,84
2016-03-02T02:15:46.963Z,84
2016-03-02T02:16:47.263Z,84
2016-03-02T02:17:47.641Z,84
2016-03-02T02:18:48.627Z,84
2016-03-02T02:19:48.958Z,85
2016-03-02T02:20:49.524Z,85
2016-03-02T02:21:50.058Z,85
2016-03-02T02:22:50.623Z,85
2016-03-02T02:23:51.172Z,85
2016-03-02T02:24:51.738Z,85
2016-03-02T02:25:52.318Z,85
2016-03-02T02:26:52.852Z,85
2016-03-02T02:27:53.590Z,85
2016-03-02T02:28:54.467Z,85
2016-03-02T02:29:55.157Z,85
2016-03-02T02:30:55.612Z,85
2016-03-02T02:31:56.148Z,85
2016-03-02T02:32:56.743Z,85
2016-03-02T02:33:57.262Z,85
2016-03-02T02:34:57.859Z,85
2016-03-02T02:35:58.517Z,85
2016-03-02T02:36:59.050Z,85
2016-03-02T02:37:59.554Z,85
2016-03-02T02:39:00.556Z,85
2016-03-02T02:40:01.122Z,85
2016-03-02T02:41:01.686Z,85
2016-03-02T02:42:02.236Z,85
2016-03-02T02:43:02.817Z,85
2016-03-02T02:44:03.366Z,85
2016-03-02T02:45:03.917Z,85
2016-03-02T02:46:04.466Z,85
2016-03-02T02:47:05.155Z,85
2016-03-02T02:48:05.674Z,85
2016-03-02T02:50:07.336Z,85
2016-03-02T02:51:07.760Z,85
2016-03-02T02:52:08.326Z,85
2016-03-02T02:53:08.891Z,85
2016-03-02T02:54:09.456Z,85
2016-03-02T02:55:10.022Z,85
2016-03-02T02:56:10.665Z,85
2016-03-02T02:57:11.105Z,85
2016-03-02T02:58:11.732Z,84
2016-03-02T02:59:12.751Z,84
2016-03-02T03:00:13.035Z,85
2016-03-02T03:01:13.600Z,84
2016-03-02T03:02:13.899Z,84
2016-03-02T03:03:14.199Z,84
2016-03-02T03:04:14.623Z,85
2016-03-02T03:05:15.064Z,85
2016-03-02T03:06:15.645Z,85
2016-03-02T03:07:16.304Z,85
2016-03-02T03:08:16.806Z,85
2016-03-02T03:09:17.793Z,85
2016-03-02T03:10:18.375Z,84
2016-03-02T03:11:19.033Z,85
2016-03-02T03:12:19.613Z,85
2016-03-02T03:13:20.148Z,85
2016-03-02T03:14:20.713Z,85
2016-03-02T03:15:21.153Z,85
2016-03-02T03:16:22.094Z,85
2016-03-02T03:17:22.768Z,85
2016-03-02T03:18:23.646Z,85
2016-03-02T03:19:24.648Z,85
2016-03-02T03:20:25.527Z,85
2016-03-02T03:21:26.279Z,85
2016-03-02T03:22:27.202Z,85
2016-03-02T03:23:27.893Z,85
2016-03-02T03:24:28.958Z,85
2016-03-02T03:25:29.836Z,85
2016-03-02T03:26:30.949Z,85
2016-03-02T03:27:32.030Z,85
2016-03-02T03:28:33.016Z,85
2016-03-02T03:29:34.159Z,85
2016-03-02T03:30:35.085Z,85
2016-03-02T03:31:36.165Z,85
2016-03-02T03:32:37.215Z,85
2016-03-02T03:33:38.295Z,85
2016-03-02T03:34:39.095Z,85
2016-03-02T03:35:40.285Z,85
2016-03-02T03:36:40.975Z,85
2016-03-02T03:37:41.791Z,85
2016-03-02T03:38:42.762Z,85
2016-03-02T03:39:43.655Z,85
2016-03-02T03:40:44.580Z,85
2016-03-02T03:41:45.286Z,85
2016-03-02T03:42:46.213Z,85
2016-03-02T03:43:46.919Z,84
2016-03-02T03:44:47.578Z,85
2016-03-02T03:45:48.158Z,85
2016-03-02T03:46:48.583Z,85
2016-03-02T03:47:49.133Z,85
2016-03-02T03:48:49.775Z,85
2016-03-02T03:49:50.747Z,85
2016-03-02T03:50:51.421Z,85
2016-03-02T03:51:51.862Z,85
2016-03-02T03:52:52.427Z,85
2016-03-02T03:53:52.992Z,85
2016-03-02T03:54:53.542Z,85
2016-03-02T03:55:54.107Z,85
2016-03-02T03:56:54.782Z,85
2016-03-02T03:57:55.222Z,85
2016-03-02T03:58:55.834Z,85
2016-03-02T03:59:56.837Z,85
2016-03-02T04:00:57.402Z,84
2016-03-02T04:01:58.093Z,84
2016-03-02T04:02:58.642Z,84
2016-03-02T04:03:59.097Z,84
2016-03-02T04:04:59.632Z,84
2016-03-02T04:06:00.181Z,84
2016-03-02T04:07:00.887Z,84
2016-03-02T04:08:01.295Z,84
2016-03-02T04:09:02.048Z,84
2016-03-02T04:10:02.926Z,84
2016-03-02T04:11:03.492Z,84
2016-03-02T04:12:04.042Z,84
2016-03-02T04:13:04.731Z,84
2016-03-02T04:14:05.186Z,84
2016-03-02T04:15:05.752Z,84
2016-03-02T04:16:06.395Z,84
2016-03-02T04:17:06.866Z,84
2016-03-02T04:18:07.511Z,84
2016-03-02T04:19:08.044Z,84
2016-03-02T04:20:09.124Z,85
2016-03-02T04:21:09.971Z,85
2016-03-02T04:22:10.646Z,85
2016-03-02T04:23:11.602Z,85
2016-03-02T04:24:12.260Z,85
2016-03-02T04:25:13.076Z,85
2016-03-02T04:26:13.891Z,85
2016-03-02T04:27:14.721Z,85
2016-03-02T04:28:15.506Z,85
2016-03-02T04:29:16.368Z,85
2016-03-02T04:30:17.386Z,85
2016-03-02T04:31:18.201Z,85
2016-03-02T04:32:19.126Z,85
2016-03-02T04:33:19.941Z,85
2016-03-02T04:34:20.631Z,85
2016-03-02T04:35:21.446Z,85
2016-03-02T04:36:22.246Z,85
2016-03-02T04:37:23.061Z,85
2016-03-02T04:38:23.876Z,85
2016-03-02T04:39:24.754Z,85
2016-03-02T04:40:25.757Z,85
2016-03-02T04:41:26.681Z,85
2016-03-02T04:42:27.372Z,85
2016-03-02T04:43:28.296Z,85
2016-03-02T04:44:29.112Z,85
2016-03-02T04:45:29.926Z,85
2016-03-02T04:46:30.633Z,85
2016-03-02T04:47:31.431Z,85
2016-03-02T04:48:32.356Z,85
2016-03-02T04:49:33.234Z,85
2016-03-02T04:50:34.127Z,85
2016-03-02T04:51:34.942Z,84
2016-03-02T04:52:35.476Z,85
2016-03-02T04:53:36.417Z,84
2016-03-02T04:54:36.857Z,84
2016-03-02T04:55:37.531Z,84
2016-03-02T04:56:38.097Z,84
2016-03-02T04:57:38.537Z,84
2016-03-02T04:58:39.118Z,84
2016-03-02T04:59:39.714Z,84
2016-03-02T05:00:40.701Z,84
2016-03-02T05:01:41.298Z,84
2016-03-02T05:02:41.815Z,84
2016-03-02T05:03:42.507Z,84
2016-03-02T05:04:42.977Z,84
2016-03-02T05:05:43.621Z,84
2016-03-02T05:06:44.170Z,84
2016-03-02T05:07:44.610Z,84
2016-03-02T05:08:45.317Z,84
2016-03-02T05:09:45.787Z,84
2016-03-02T05:10:46.948Z,84
2016-03-02T05:11:47.371Z,84
2016-03-02T05:12:47.924Z,84
2016-03-02T05:13:48.473Z,84
2016-03-02T05:14:49.164Z,84
2016-03-02T05:15:49.713Z,84
2016-03-02T05:16:50.153Z,84
2016-03-02T05:17:50.827Z,85
2016-03-02T05:18:51.533Z,85
2016-03-02T05:19:52.536Z,85
2016-03-02T05:20:53.398Z,85
2016-03-02T05:21:54.197Z,85
2016-03-02T05:22:55.013Z,85
2016-03-02T05:23:55.828Z,85
2016-03-02T05:24:56.644Z,85
2016-03-02T05:25:57.708Z,85
2016-03-02T05:26:58.774Z,85
2016-03-02T05:27:59.839Z,85
2016-03-02T05:29:01.013Z,85
2016-03-02T05:30:02.032Z,85
2016-03-02T05:31:03.035Z,85
2016-03-02T05:32:04.209Z,85
2016-03-02T05:33:05.165Z,85
2016-03-02T05:34:06.230Z,85
2016-03-02T05:35:07.296Z,85
2016-03-02T05:36:08.532Z,85
2016-03-02T05:37:09.565Z,85
2016-03-02T05:38:10.226Z,85
2016-03-02T05:39:11.040Z,85
2016-03-02T05:40:11.903Z,85
2016-03-02T05:41:12.921Z,85
2016-03-02T05:42:13.736Z,85
2016-03-02T05:43:14.551Z,85
2016-03-02T05:44:15.351Z,85
2016-03-02T05:45:16.166Z,85
2016-03-02T05:46:16.965Z,85
2016-03-02T05:47:17.780Z,85
2016-03-02T05:48:18.595Z,84
2016-03-02T05:49:19.286Z,84
2016-03-02T05:50:19.772Z,84
2016-03-02T05:51:20.917Z,84
2016-03-02T05:52:21.325Z,84
2016-03-02T05:53:21.891Z,84
2016-03-02T05:54:22.456Z,84
2016-03-02T05:55:23.005Z,84
2016-03-02T05:56:23.555Z,84
2016-03-02T05:57:24.119Z,84
2016-03-02T05:58:24.701Z,84
2016-03-02T05:59:25.250Z,84
2016-03-02T06:00:25.971Z,84
2016-03-02T06:01:26.803Z,84
2016-03-02T06:02:27.446Z,84
2016-03-02T06:03:28.104Z,84
2016-03-02T06:04:28.529Z,84
2016-03-02T06:05:29.079Z,84
2016-03-02T06:06:29.660Z,84
2016-03-02T06:07:30.334Z,84
2016-03-02T06:08:30.790Z,84
2016-03-02T06:09:31.324Z,84
2016-03-02T06:10:32.061Z,84
2016-03-02T06:11:33.080Z,84
2016-03-02T06:12:33.645Z,84
2016-03-02T06:13:34.070Z,84
2016-03-02T06:14:34.634Z,84
2016-03-02T06:15:35.340Z,84
2016-03-02T06:16:35.750Z,84
2016-03-02T06:17:36.298Z,84
2016-03-02T06:18:36.848Z,85
2016-03-02T06:19:37.664Z,85
2016-03-02T06:20:38.541Z,85
2016-03-02T06:21:39.544Z,85
2016-03-02T06:22:40.609Z,85
2016-03-02T06:23:41.674Z,85
2016-03-02T06:24:42.739Z,85
2016-03-02T06:25:43.805Z,85
2016-03-02T06:26:44.869Z,85
2016-03-02T06:27:46.091Z,85
2016-03-02T06:28:46.999Z,85
2016-03-02T06:29:48.066Z,85
2016-03-02T06:30:49.305Z,85
2016-03-02T06:31:50.199Z,85
2016-03-02T06:32:51.248Z,85
2016-03-02T06:33:52.079Z,85
2016-03-02T06:34:53.129Z,85
2016-03-02T06:35:54.193Z,85
2016-03-02T06:36:55.149Z,85
2016-03-02T06:37:55.824Z,85
2016-03-02T06:38:56.640Z,85
2016-03-02T06:39:57.454Z,85
2016-03-02T06:40:58.317Z,85
2016-03-02T06:41:59.319Z,85
2016-03-02T06:43:00.135Z,85
2016-03-02T06:44:00.934Z,85
2016-03-02T06:45:01.748Z,85
2016-03-02T06:46:02.673Z,85
2016-03-02T06:47:03.395Z,85
2016-03-02T06:48:04.320Z,85
2016-03-02T06:49:04.995Z,85
2016-03-02T06:50:05.809Z,85
2016-03-02T06:51:06.389Z,85
2016-03-02T06:52:07.721Z,85
2016-03-02T06:53:08.614Z,84
2016-03-02T06:54:09.055Z,85
2016-03-02T06:55:09.980Z,85
2016-03-02T06:56:10.669Z,84
2016-03-02T06:57:11.344Z,85
2016-03-02T06:58:12.049Z,84
2016-03-02T06:59:12.725Z,84
2016-03-02T07:00:13.164Z,84
2016-03-02T07:01:13.777Z,84
2016-03-02T07:02:14.779Z,84
2016-03-02T07:03:15.345Z,84
2016-03-02T07:04:15.957Z,84
2016-03-02T07:05:16.396Z,84
2016-03-02T07:06:17.149Z,84
2016-03-02T07:07:17.574Z,84
2016-03-02T07:08:18.265Z,84
2016-03-02T07:09:18.814Z,84
2016-03-02T07:10:19.363Z,84
2016-03-02T07:11:20.007Z,84
2016-03-02T07:12:20.993Z,84
2016-03-02T07:13:21.435Z,84
2016-03-02T07:14:21.984Z,84
2016-03-02T07:15:22.673Z,84
2016-03-02T07:16:23.115Z,84
2016-03-02T07:17:23.664Z,84
2016-03-02T07:18:24.229Z,84
2016-03-02T07:19:24.794Z,85
2016-03-02T07:20:25.625Z,85
2016-03-02T07:21:26.456Z,85
2016-03-02T07:22:27.473Z,85
2016-03-02T07:23:28.398Z,85
2016-03-02T07:24:29.089Z,85
2016-03-02T07:25:30.014Z,85
2016-03-02T07:26:30.719Z,85
2016-03-02T07:27:31.645Z,85
2016-03-02T07:28:32.334Z,85
2016-03-02T07:29:33.150Z,85
2016-03-02T07:30:34.075Z,85
2016-03-02T07:31:34.827Z,85
2016-03-02T07:32:35.830Z,85
2016-03-02T07:33:36.644Z,85
2016-03-02T07:34:37.461Z,85
2016-03-02T07:35:38.260Z,85
2016-03-02T07:36:39.216Z,85
2016-03-02T07:37:40.000Z,85
2016-03-02T07:38:40.705Z,85
2016-03-02T07:39:41.755Z,85
2016-03-02T07:40:42.585Z,85
2016-03-02T07:41:43.432Z,85
2016-03-02T07:42:44.450Z,85
2016-03-02T07:43:45.405Z,85
2016-03-02T07:44:46.472Z,85
2016-03-02T07:45:47.130Z,85
2016-03-02T07:46:47.946Z,85
2016-03-02T07:47:49.026Z,85
2016-03-02T07:48:49.857Z,85
2016-03-02T07:49:50.891Z,85
2016-03-02T07:50:51.722Z,85
2016-03-02T07:51:52.693Z,85
2016-03-02T07:52:53.601Z,85
2016-03-02T07:53:54.511Z,85
2016-03-02T07:54:55.451Z,85
2016-03-02T07:55:56.297Z,85
2016-03-02T07:56:57.081Z,85
2016-03-02T07:57:57.897Z,85
2016-03-02T07:58:58.696Z,85
2016-03-02T07:59:59.511Z,85
2016-03-02T08:01:00.326Z,85
2016-03-02T08:02:01.189Z,85
2016-03-02T08:03:02.238Z,85
2016-03-02T08:04:03.131Z,85
2016-03-02T08:05:03.822Z,85
2016-03-02T08:06:04.747Z,85
2016-03-02T08:07:05.437Z,85
2016-03-02T08:08:06.299Z,85
2016-03-02T08:09:07.067Z,85
2016-03-02T08:10:07.867Z,85
2016-03-02T08:11:08.682Z,85
2016-03-02T08:12:09.544Z,85
2016-03-02T08:13:10.563Z,85
2016-03-02T08:14:11.378Z,85
2016-03-02T08:15:12.552Z,85
2016-03-02T08:16:13.616Z,85
2016-03-02T08:17:14.573Z,85
2016-03-02T08:18:15.669Z,85
2016-03-02T08:19:17.035Z,85
2016-03-02T08:20:17.788Z,85
2016-03-02T08:21:18.852Z,85
2016-03-02T08:22:19.980Z,85
2016-03-02T08:23:20.967Z,85
2016-03-02T08:24:22.032Z,85
2016-03-02T08:25:23.081Z,85
2016-03-02T08:26:24.162Z,85
2016-03-02T08:27:25.228Z,85
2016-03-02T08:28:26.402Z,85
2016-03-02T08:29:27.390Z,85
2016-03-02T08:30:28.439Z,85
2016-03-02T08:31:29.473Z,85
2016-03-02T08:32:30.601Z,85
2016-03-02T08:33:31.619Z,85
2016-03-02T08:34:32.793Z,85
2016-03-02T08:35:33.749Z,85
2016-03-02T08:36:34.814Z,85
2016-03-02T08:37:35.870Z,85
2016-03-02T08:38:37.030Z,85
2016-03-02T08:39:37.955Z,85
2016-03-02T08:40:39.020Z,85
2016-03-02T08:41:40.071Z,85
2016-03-02T08:42:41.156Z,85
2016-03-02T08:43:42.293Z,85
2016-03-02T08:44:43.244Z,85
2016-03-02T08:45:44.304Z,85
2016-03-02T08:46:45.363Z,85
2016-03-02T08:47:46.629Z,85
2016-03-02T08:48:47.489Z,85
2016-03-02T08:49:48.552Z,85
2016-03-02T08:50:49.616Z,85
2016-03-02T08:51:50.788Z,85
2016-03-02T08:52:51.789Z,85
2016-03-02T08:53:52.916Z,85
2016-03-02T08:54:53.871Z,85
2016-03-02T08:55:55.045Z,85
2016-03-02T08:56:56.156Z,85
2016-03-02T08:57:57.049Z,85
2016-03-02T08:58:58.131Z,85
2016-03-02T08:59:59.196Z,85
2016-03-02T09:01:00.370Z,85
2016-03-02T09:02:01.310Z,85
2016-03-02T09:03:02.438Z,85
2016-03-02T09:04:03.440Z,85
2016-03-02T09:05:04.568Z,85
2016-03-02T09:06:05.696Z,85
2016-03-02T09:07:06.746Z,85
2016-03-02T09:08:07.702Z,85
2016-03-02T09:09:08.876Z,85
2016-03-02T09:10:09.941Z,85
2016-03-02T09:11:10.897Z,85
2016-03-02T09:12:11.946Z,85
2016-03-02T09:13:13.106Z,85
2016-03-02T09:14:14.201Z,85
2016-03-02T09:15:15.173Z,86
2016-03-02T09:16:16.457Z,86
2016-03-02T09:17:17.772Z,86
2016-03-02T09:18:19.104Z,86
2016-03-02T09:19:20.794Z,86
2016-03-02T09:20:22.375Z,86
2016-03-02T09:21:23.817Z,86
2016-03-02T09:22:25.383Z,86
2016-03-02T09:23:27.025Z,86
2016-03-02T09:24:28.185Z,86
2016-03-02T09:25:29.344Z,86
2016-03-02T09:26:30.784Z,85
2016-03-02T09:27:31.771Z,85
2016-03-02T09:28:32.805Z,85
2016-03-02T09:29:33.620Z,84
2016-03-02T09:30:34.155Z,84
2016-03-02T09:31:34.860Z,84
2016-03-02T09:32:35.285Z,84
2016-03-02T09:33:35.880Z,84
2016-03-02T09:34:36.899Z,84
2016-03-02T09:35:37.480Z,84
2016-03-02T09:36:38.013Z,84
2016-03-02T09:37:38.580Z,84
2016-03-02T09:38:39.129Z,85
2016-03-02T09:39:40.054Z,85
2016-03-02T09:40:40.744Z,85
2016-03-02T09:41:41.574Z,85
2016-03-02T09:42:42.640Z,85
2016-03-02T09:43:43.751Z,85
2016-03-02T09:44:44.754Z,85
2016-03-02T09:45:45.944Z,85
2016-03-02T09:46:47.150Z,85
2016-03-02T09:47:48.747Z,86
2016-03-02T09:48:49.795Z,85
2016-03-02T09:49:51.111Z,86
2016-03-02T09:50:52.676Z,86
2016-03-02T09:51:54.273Z,86
2016-03-02T09:52:55.854Z,86
2016-03-02T09:53:57.450Z,86
2016-03-02T09:54:58.469Z,86
2016-03-02T09:55:56.471Z,86
2016-03-02T09:56:54.458Z,87
2016-03-02T09:57:52.069Z,87
2016-03-02T09:58:50.057Z,87
2016-03-02T09:59:48.075Z,87
2016-03-02T10:00:46.110Z,87
2016-03-02T10:01:44.174Z,87
2016-03-02T10:02:42.163Z,87
2016-03-02T10:03:40.336Z,87
2016-03-02T10:04:41.230Z,87
2016-03-02T10:05:39.263Z,87
2016-03-02T10:06:37.391Z,87
2016-03-02T10:07:35.316Z,87
2016-03-02T10:08:33.318Z,87
2016-03-02T10:09:31.353Z,87
2016-03-02T10:10:29.371Z,87
2016-03-02T10:11:27.405Z,87
2016-03-02T10:12:25.423Z,86
2016-03-02T10:13:26.801Z,81
2016-03-02T10:14:27.803Z,78
2016-03-02T10:15:28.134Z,74
2016-03-02T10:16:26.575Z,72
2016-03-02T10:17:27.967Z,71
2016-03-02T10:18:28.283Z,69
2016-03-02T10:19:27.848Z,68
2016-03-02T10:20:26.867Z,67
2016-03-02T10:21:25.385Z,67
2016-03-02T10:23:21.747Z,66
2016-03-02T10:24:22.750Z,66
2016-03-02T10:25:24.440Z,65
2016-03-02T10:26:25.661Z,65
2016-03-02T10:27:26.697Z,65
2016-03-02T10:28:27.794Z,64
2016-03-02T10:29:28.719Z,64
2016-03-02T10:30:29.425Z,64
2016-03-02T10:31:30.334Z,64
2016-03-02T10:32:30.883Z,64
2016-03-02T10:33:31.371Z,64
2016-03-02T10:34:32.388Z,64
2016-03-02T10:35:33.063Z,63
2016-03-02T10:36:33.362Z,63
2016-03-02T10:37:33.553Z,63
2016-03-02T10:38:33.868Z,63
2016-03-02T10:39:34.199Z,63
2016-03-02T10:40:34.218Z,63
2016-03-02T10:41:34.299Z,62
2016-03-02T10:42:34.066Z,62
2016-03-02T10:43:33.929Z,62
2016-03-02T10:44:34.946Z,62
2016-03-02T10:45:34.496Z,62
2016-03-02T10:46:34.140Z,61
2016-03-02T10:47:33.345Z,61
2016-03-02T10:48:32.645Z,61
2016-03-02T10:49:31.929Z,61
2016-03-02T10:50:31.212Z,61
2016-03-02T10:51:30.497Z,61
2016-03-02T10:52:29.797Z,61
2016-03-02T10:53:29.158Z,61
2016-03-02T10:54:30.161Z,61
2016-03-02T10:55:29.211Z,61
2016-03-02T10:56:28.229Z,61
2016-03-02T10:57:27.370Z,61
2016-03-02T10:58:26.295Z,61
2016-03-02T10:59:25.344Z,60
2016-03-02T11:00:24.112Z,61
2016-03-02T11:01:23.177Z,60
2016-03-02T11:02:21.930Z,60
2016-03-02T11:03:20.792Z,60
2016-03-02T11:04:21.794Z,60
2016-03-02T11:05:20.705Z,60
2016-03-02T11:06:19.363Z,60
2016-03-02T11:07:18.130Z,61
2016-03-02T11:08:16.947Z,60
2016-03-02T11:09:15.855Z,60
2016-03-02T11:10:14.248Z,60
2016-03-02T11:11:12.766Z,60
2016-03-02T11:12:11.316Z,60
2016-03-02T11:13:09.882Z,60
2016-03-02T11:14:10.899Z,60
2016-03-02T11:15:09.184Z,60
2016-03-02T11:16:07.468Z,60
2016-03-02T11:17:05.736Z,60
2016-03-02T11:18:04.020Z,60
2016-03-02T11:19:02.398Z,60
2016-03-02T11:20:00.573Z,60
2016-03-02T11:20:58.840Z,60
2016-03-02T11:21:57.125Z,59
2016-03-02T11:22:55.314Z,59
2016-03-02T11:23:56.192Z,59
2016-03-02T11:24:54.242Z,59
2016-03-02T11:25:52.261Z,59
2016-03-02T11:26:50.295Z,59
2016-03-02T11:27:48.312Z,59
2016-03-02T11:28:46.315Z,59
2016-03-02T11:29:44.083Z,59
2016-03-02T11:30:41.852Z,59
2016-03-02T11:31:39.745Z,59
2016-03-02T11:32:37.451Z,59
2016-03-02T11:33:38.469Z,59
2016-03-02T11:34:36.378Z,59
2016-03-02T11:35:34.006Z,59
2016-03-02T11:36:31.790Z,59
2016-03-02T11:37:29.558Z,59
2016-03-02T11:38:27.324Z,59
2016-03-02T11:39:25.077Z,58
2016-03-02T11:40:26.658Z,58
2016-03-02T11:41:28.222Z,58
2016-03-02T11:42:29.868Z,58
2016-03-02T11:43:30.871Z,58
2016-03-02T11:44:32.437Z,58
2016-03-02T11:45:34.018Z,58
2016-03-02T11:46:35.582Z,58
2016-03-02T11:47:36.898Z,58
2016-03-02T11:48:38.212Z,58
2016-03-02T11:49:39.528Z,58
2016-03-02T11:50:40.843Z,58
2016-03-02T11:51:42.173Z,58
2016-03-02T11:52:43.537Z,58
2016-03-02T11:53:44.554Z,58
2016-03-02T11:54:45.870Z,58
2016-03-02T11:55:47.184Z,58
2016-03-02T11:56:48.531Z,58
2016-03-02T11:57:49.831Z,57
2016-03-02T11:58:50.895Z,57
2016-03-02T11:59:51.961Z,57
2016-03-02T12:00:53.026Z,57
2016-03-02T12:01:54.091Z,57
2016-03-02T12:02:55.220Z,57
2016-03-02T12:03:56.222Z,57
2016-03-02T12:04:57.286Z,57
2016-03-02T12:05:58.348Z,57
2016-03-02T12:06:59.414Z,57
2016-03-02T12:08:00.588Z,57
2016-03-02T12:09:01.545Z,57
2016-03-02T12:10:02.343Z,57
2016-03-02T12:11:03.159Z,57
2016-03-02T12:12:04.084Z,57
2016-03-02T12:13:04.851Z,57
2016-03-02T12:14:05.854Z,57
2016-03-02T12:15:06.669Z,57
2016-03-02T12:16:07.501Z,57
2016-03-02T12:17:08.284Z,57
2016-03-02T12:18:09.100Z,57
2016-03-02T12:19:09.914Z,57
2016-03-02T12:20:10.714Z,57
2016-03-02T12:21:11.530Z,57
2016-03-02T12:22:12.376Z,57
2016-03-02T12:23:13.222Z,57
2016-03-02T12:24:14.225Z,57
2016-03-02T12:25:15.041Z,57
2016-03-02T12:26:15.855Z,57
2016-03-02T12:27:16.671Z,57
2016-03-02T12:28:17.610Z,57
2016-03-02T12:29:18.285Z,57
2016-03-02T12:30:19.101Z,57
2016-03-02T12:31:19.915Z,57
2016-03-02T12:32:20.715Z,57
2016-03-02T12:33:21.702Z,56
2016-03-02T12:34:22.705Z,57
2016-03-02T12:35:23.426Z,56
2016-03-02T12:36:24.086Z,56
2016-03-02T12:37:24.525Z,56
2016-03-02T12:38:25.076Z,56
2016-03-02T12:39:25.641Z,56
2016-03-02T12:40:26.206Z,56
2016-03-02T12:41:26.770Z,56
2016-03-02T12:42:27.304Z,56
2016-03-02T12:43:27.932Z,56
2016-03-02T12:44:29.060Z,56
2016-03-02T12:45:29.500Z,56
2016-03-02T12:46:30.050Z,56
2016-03-02T12:47:30.350Z,56
2016-03-02T12:49:30.964Z,56
2016-03-02T12:50:31.280Z,56
2016-03-02T12:51:31.579Z,56
2016-03-02T12:52:31.989Z,56
2016-03-02T12:53:32.256Z,56
2016-03-02T12:54:33.243Z,56
2016-03-02T12:55:33.574Z,56
2016-03-02T12:56:33.859Z,56
2016-03-02T12:57:34.189Z,56
2016-03-02T12:58:34.598Z,56
2016-03-02T12:59:34.788Z,56
2016-03-02T13:00:35.088Z,56
2016-03-02T13:01:35.388Z,56
2016-03-02T13:02:35.812Z,56
2016-03-02T13:03:36.049Z,56
2016-03-02T13:04:37.068Z,56
2016-03-02T13:05:37.383Z,56
2016-03-02T13:06:37.667Z,56
2016-03-02T13:07:37.982Z,56
2016-03-02T13:08:38.282Z,56
2016-03-02T13:09:38.582Z,56
2016-03-02T13:10:38.896Z,56
2016-03-02T13:11:39.196Z,56
2016-03-02T13:12:39.605Z,56
2016-03-02T13:13:39.857Z,55
2016-03-02T13:14:40.860Z,55
2016-03-02T13:15:40.910Z,55
2016-03-02T13:16:40.959Z,56
2016-03-02T13:17:41.274Z,55
2016-03-02T13:18:41.324Z,55
2016-03-02T13:19:41.389Z,55
2016-03-02T13:20:41.423Z,55
2016-03-02T13:21:41.582Z,55
2016-03-02T13:22:41.538Z,55
2016-03-02T13:23:41.634Z,55
2016-03-02T13:24:42.668Z,55
2016-03-02T13:25:42.703Z,55
2016-03-02T13:26:42.752Z,55
2016-03-02T13:27:42.801Z,55
2016-03-02T13:28:42.976Z,55
2016-03-02T13:29:42.900Z,55
2016-03-02T13:30:42.950Z,55
2016-03-02T13:31:43.000Z,55
2016-03-02T13:32:43.050Z,55
2016-03-02T13:33:43.161Z,55
2016-03-02T13:34:44.164Z,55
2016-03-02T13:35:44.214Z,55
2016-03-02T13:36:44.263Z,55
2016-03-02T13:37:44.313Z,55
2016-03-02T13:38:44.393Z,55
2016-03-02T13:39:44.538Z,55
2016-03-02T13:40:44.461Z,55
2016-03-02T13:41:44.526Z,55
2016-03-02T13:42:44.577Z,55
2016-03-02T13:43:44.798Z,55
2016-03-02T13:44:45.676Z,55
2016-03-02T13:45:45.741Z,55
2016-03-02T13:46:45.774Z,55
2016-03-02T13:47:45.590Z,55
2016-03-02T13:48:45.373Z,55
2016-03-02T13:49:45.440Z,55
2016-03-02T13:50:45.473Z,55
2016-03-02T13:51:45.600Z,55
2016-03-02T13:52:45.073Z,55
2016-03-02T13:53:44.934Z,55
2016-03-02T13:54:45.953Z,55
2016-03-02T13:55:45.736Z,55
2016-03-02T13:56:45.551Z,55
2016-03-02T13:57:45.336Z,55
2016-03-02T13:58:45.134Z,55
2016-03-02T13:59:44.934Z,55
2016-03-02T14:00:44.719Z,55
2016-03-02T14:01:44.518Z,55
2016-03-02T14:02:44.427Z,55
2016-03-02T14:03:44.195Z,55
2016-03-02T14:04:45.182Z,55
2016-03-02T14:05:45.200Z,55
2016-03-02T14:06:44.782Z,55
2016-03-02T14:07:44.597Z,55
2016-03-02T14:08:44.381Z,55
2016-03-02T14:09:44.165Z,55
2016-03-02T14:10:43.981Z,55
2016-03-02T14:11:43.765Z,55
2016-03-02T14:12:43.581Z,55
2016-03-02T14:13:43.536Z,55
2016-03-02T14:14:44.428Z,55
2016-03-02T14:15:44.229Z,55
2016-03-02T14:16:44.028Z,55
2016-03-02T14:17:43.969Z,55
2016-03-02T14:18:43.611Z,55
2016-03-02T14:19:43.427Z,55
2016-03-02T14:20:43.211Z,55
2016-03-02T14:21:43.026Z,55
2016-03-02T14:22:42.842Z,55
2016-03-02T14:23:42.672Z,55
2016-03-02T14:24:43.684Z,55